VJT1205 NVVV-NZAA
Flight info
| Callsign | VJT1205 |
|---|---|
| Flight time | N/A |
| Altitude | 45000 |
| Route | EMTEN1 BIGSY DCT ELSAX R599 DUGAN |
| Aircraft | C700/M-SBDGHM1RWXY/LB2 |
Departure
| Time | 2026-04-30 20:30 |
|---|---|
| Airport | Bauerfield International Airport (NVVV) |
Arrival
| Time | N/A |
|---|---|
| Airport | Auckland International Airport (NZAA) |
| Time | Latitude | Longitude | Altitude | Speed | Heading |
|---|---|---|---|---|---|
| 2026-04-30 20:21 | -17.70072 | 168.31914 | 61 ft | 0 kts | 253° |
| 2026-04-30 20:24 | -17.70072 | 168.31916 | 61 ft | 2 kts | 252° |
| 2026-04-30 20:25 | -17.70060 | 168.31949 | 62 ft | 2 kts | 248° |
| 2026-04-30 20:25 | -17.70054 | 168.31964 | 63 ft | 2 kts | 244° |
| 2026-04-30 20:26 | -17.70046 | 168.31984 | 59 ft | 0 kts | 278° |
| 2026-04-30 20:27 | -17.70010 | 168.31920 | 66 ft | 11 kts | 6° |
| 2026-04-30 20:27 | -17.69875 | 168.31860 | 67 ft | 18 kts | 297° |
| 2026-04-30 20:28 | -17.69692 | 168.31499 | 65 ft | 39 kts | 297° |
| 2026-04-30 20:28 | -17.69442 | 168.31004 | 61 ft | 36 kts | 297° |
| 2026-04-30 20:29 | -17.69249 | 168.30702 | 57 ft | 15 kts | 242° |
| 2026-04-30 20:30 | -17.69317 | 168.30757 | 54 ft | 2 kts | 117° |
| 2026-04-30 20:30 | -17.70467 | 168.33047 | 862 ft | 192 kts | 118° |
| 2026-04-30 20:31 | -17.73789 | 168.35394 | 2794 ft | 212 kts | 175° |
| 2026-04-30 20:32 | -17.78830 | 168.34874 | 4760 ft | 265 kts | 159° |
| 2026-04-30 20:32 | -17.82190 | 168.36550 | 6057 ft | 271 kts | 161° |
| 2026-04-30 20:33 | -17.84030 | 168.37062 | 6702 ft | 274 kts | 168° |
| 2026-04-30 20:33 | -17.87763 | 168.37975 | 7977 ft | 279 kts | 165° |
| 2026-04-30 20:33 | -17.89662 | 168.38509 | 8612 ft | 282 kts | 166° |
| 2026-04-30 20:34 | -17.93444 | 168.38016 | 9844 ft | 285 kts | 208° |
| 2026-04-30 20:34 | -17.97416 | 168.38069 | 11078 ft | 311 kts | 157° |
| 2026-04-30 20:35 | -17.99428 | 168.39027 | 11716 ft | 317 kts | 156° |
| 2026-04-30 20:35 | -18.01512 | 168.39864 | 12357 ft | 321 kts | 163° |
| 2026-04-30 20:35 | -18.05905 | 168.40913 | 13621 ft | 328 kts | 167° |
| 2026-04-30 20:36 | -18.08117 | 168.41527 | 14250 ft | 331 kts | 165° |
| 2026-04-30 20:36 | -18.10334 | 168.42174 | 14863 ft | 334 kts | 165° |
| 2026-04-30 20:36 | -18.14891 | 168.43400 | 16134 ft | 340 kts | 166° |
| 2026-04-30 20:37 | -18.17180 | 168.44026 | 16758 ft | 343 kts | 166° |
| 2026-04-30 20:37 | -18.19494 | 168.44662 | 17381 ft | 346 kts | 166° |
| 2026-04-30 20:37 | -18.21833 | 168.45301 | 18006 ft | 350 kts | 166° |
| 2026-04-30 20:37 | -18.24219 | 168.45953 | 18637 ft | 353 kts | 166° |
| 2026-04-30 20:38 | -18.26599 | 168.46602 | 19263 ft | 356 kts | 166° |
| 2026-04-30 20:38 | -18.29026 | 168.47267 | 19891 ft | 360 kts | 166° |
| 2026-04-30 20:38 | -18.31452 | 168.47930 | 20511 ft | 363 kts | 166° |
| 2026-04-30 20:39 | -18.36373 | 168.49277 | 21755 ft | 371 kts | 166° |
| 2026-04-30 20:39 | -18.38906 | 168.49970 | 22387 ft | 374 kts | 166° |
| 2026-04-30 20:39 | -18.41428 | 168.50661 | 23010 ft | 378 kts | 166° |
| 2026-04-30 20:40 | -18.46575 | 168.52072 | 24261 ft | 385 kts | 166° |
| 2026-04-30 20:40 | -18.49161 | 168.52779 | 24881 ft | 389 kts | 166° |
| 2026-04-30 20:40 | -18.51813 | 168.53508 | 25511 ft | 393 kts | 166° |
| 2026-04-30 20:41 | -18.57138 | 168.54968 | 26756 ft | 401 kts | 166° |
| 2026-04-30 20:41 | -18.59863 | 168.55716 | 27386 ft | 405 kts | 166° |
| 2026-04-30 20:41 | -18.62583 | 168.56462 | 28005 ft | 409 kts | 166° |
| 2026-04-30 20:41 | -18.65366 | 168.57227 | 28633 ft | 413 kts | 166° |
| 2026-04-30 20:42 | -18.68138 | 168.57988 | 29253 ft | 417 kts | 166° |
| 2026-04-30 20:42 | -18.70948 | 168.58761 | 29873 ft | 422 kts | 166° |
| 2026-04-30 20:42 | -18.76788 | 168.59708 | 31101 ft | 432 kts | 188° |
| 2026-04-30 20:43 | -18.79703 | 168.58834 | 31571 ft | 440 kts | 201° |
| 2026-04-30 20:43 | -18.82556 | 168.57609 | 32057 ft | 446 kts | 202° |
| 2026-04-30 20:43 | -18.85476 | 168.56409 | 32540 ft | 452 kts | 200° |
| 2026-04-30 20:44 | -18.91604 | 168.54596 | 33499 ft | 463 kts | 191° |
| 2026-04-30 20:44 | -18.94799 | 168.54084 | 33977 ft | 467 kts | 186° |
| 2026-04-30 20:44 | -19.01286 | 168.54109 | 34921 ft | 467 kts | 171° |
| 2026-04-30 20:45 | -19.07578 | 168.55796 | 35848 ft | 466 kts | 163° |
| 2026-04-30 20:45 | -19.10653 | 168.56744 | 36298 ft | 465 kts | 165° |
| 2026-04-30 20:45 | -19.13813 | 168.57469 | 36754 ft | 465 kts | 170° |
| 2026-04-30 20:46 | -19.23290 | 168.59539 | 38150 ft | 461 kts | 167° |
| 2026-04-30 20:46 | -19.26411 | 168.60279 | 38616 ft | 459 kts | 168° |
| 2026-04-30 20:47 | -19.32635 | 168.61640 | 39542 ft | 454 kts | 167° |
| 2026-04-30 20:47 | -19.35673 | 168.62526 | 40003 ft | 451 kts | 164° |
| 2026-04-30 20:48 | -19.41666 | 168.64291 | 40920 ft | 442 kts | 165° |
| 2026-04-30 20:48 | -19.44626 | 168.65130 | 41377 ft | 438 kts | 165° |
| 2026-04-30 20:48 | -19.47510 | 168.65974 | 41826 ft | 433 kts | 165° |
| 2026-04-30 20:48 | -19.50395 | 168.66823 | 42279 ft | 428 kts | 165° |
| 2026-04-30 20:49 | -19.53249 | 168.67651 | 42730 ft | 422 kts | 165° |
| 2026-04-30 20:49 | -19.56065 | 168.68467 | 43178 ft | 416 kts | 165° |
| 2026-04-30 20:49 | -19.58846 | 168.69278 | 43627 ft | 410 kts | 165° |
| 2026-04-30 20:50 | -19.64262 | 168.70857 | 44511 ft | 396 kts | 165° |
| 2026-04-30 20:50 | -19.66902 | 168.71626 | 44928 ft | 390 kts | 165° |
| 2026-04-30 20:50 | -19.69529 | 168.72391 | 44980 ft | 394 kts | 165° |
| 2026-04-30 20:51 | -19.74882 | 168.73953 | 44984 ft | 404 kts | 165° |
| 2026-04-30 20:51 | -19.83118 | 168.76358 | 44993 ft | 417 kts | 165° |
| 2026-04-30 20:52 | -19.88777 | 168.78012 | 44997 ft | 426 kts | 165° |
| 2026-04-30 20:53 | -19.97473 | 168.80557 | 45001 ft | 438 kts | 165° |
| 2026-04-30 20:53 | -20.03403 | 168.82293 | 45003 ft | 446 kts | 165° |
| 2026-04-30 20:54 | -20.12490 | 168.84956 | 45000 ft | 456 kts | 165° |
| 2026-04-30 20:55 | -20.21735 | 168.87669 | 45004 ft | 466 kts | 165° |
| 2026-04-30 20:55 | -20.28028 | 168.89518 | 45004 ft | 472 kts | 165° |
| 2026-04-30 20:56 | -20.37609 | 168.92336 | 44999 ft | 480 kts | 165° |
| 2026-04-30 20:57 | -20.47318 | 168.95195 | 45000 ft | 483 kts | 165° |
| 2026-04-30 20:57 | -20.53802 | 168.97107 | 45001 ft | 483 kts | 165° |
| 2026-04-30 20:58 | -20.63485 | 168.99964 | 44999 ft | 483 kts | 165° |
| 2026-04-30 20:58 | -20.69971 | 169.01881 | 44999 ft | 483 kts | 165° |
| 2026-04-30 20:59 | -20.79712 | 169.04761 | 45000 ft | 483 kts | 165° |
| 2026-04-30 21:00 | -20.92639 | 169.08591 | 44997 ft | 483 kts | 165° |
| 2026-04-30 21:01 | -21.02350 | 169.11472 | 45000 ft | 482 kts | 165° |
| 2026-04-30 21:02 | -21.12044 | 169.14352 | 44998 ft | 481 kts | 165° |
| 2026-04-30 21:02 | -21.18497 | 169.16271 | 44998 ft | 481 kts | 165° |
| 2026-04-30 21:03 | -21.24950 | 169.18192 | 44997 ft | 481 kts | 165° |
| 2026-04-30 21:03 | -21.31389 | 169.20111 | 44996 ft | 480 kts | 165° |
| 2026-04-30 21:04 | -21.37826 | 169.22032 | 44994 ft | 480 kts | 165° |
| 2026-04-30 21:04 | -21.47443 | 169.24902 | 44996 ft | 479 kts | 165° |
| 2026-04-30 21:05 | -21.53884 | 169.26828 | 44997 ft | 481 kts | 165° |
| 2026-04-30 21:05 | -21.60346 | 169.28762 | 44999 ft | 483 kts | 165° |
| 2026-04-30 21:06 | -21.66835 | 169.30706 | 45000 ft | 484 kts | 165° |
| 2026-04-30 21:06 | -21.73320 | 169.32649 | 45002 ft | 483 kts | 165° |
| 2026-04-30 21:07 | -21.79752 | 169.34579 | 45000 ft | 482 kts | 165° |
| 2026-04-30 21:07 | -21.86214 | 169.36519 | 44999 ft | 481 kts | 165° |
| 2026-04-30 21:08 | -21.92654 | 169.38455 | 44994 ft | 480 kts | 165° |
| 2026-04-30 21:08 | -21.99086 | 169.40391 | 44995 ft | 481 kts | 165° |
| 2026-04-30 21:09 | -22.05538 | 169.42334 | 44996 ft | 483 kts | 165° |
| 2026-04-30 21:09 | -22.12022 | 169.44289 | 44998 ft | 484 kts | 165° |
| 2026-04-30 21:10 | -22.18522 | 169.46250 | 45000 ft | 484 kts | 165° |
| 2026-04-30 21:10 | -22.24997 | 169.48206 | 44997 ft | 482 kts | 165° |
| 2026-04-30 21:11 | -22.31449 | 169.50156 | 44997 ft | 481 kts | 165° |
| 2026-04-30 21:11 | -22.37886 | 169.52104 | 44993 ft | 480 kts | 165° |
| 2026-04-30 21:12 | -22.44284 | 169.54042 | 44994 ft | 481 kts | 165° |
| 2026-04-30 21:12 | -22.50745 | 169.56002 | 44992 ft | 483 kts | 165° |
| 2026-04-30 21:13 | -22.57231 | 169.57971 | 44995 ft | 485 kts | 165° |
| 2026-04-30 21:13 | -22.63721 | 169.59942 | 45000 ft | 484 kts | 164° |
| 2026-04-30 21:14 | -22.70189 | 169.61908 | 44998 ft | 482 kts | 164° |
| 2026-04-30 21:14 | -22.76640 | 169.63872 | 44996 ft | 481 kts | 164° |
| 2026-04-30 21:15 | -22.83075 | 169.65832 | 44996 ft | 480 kts | 164° |
| 2026-04-30 21:15 | -22.89521 | 169.67799 | 44996 ft | 482 kts | 164° |
| 2026-04-30 21:16 | -22.95985 | 169.69773 | 44998 ft | 483 kts | 164° |
| 2026-04-30 21:16 | -23.01373 | 169.71419 | 44998 ft | 484 kts | 164° |
| 2026-04-30 21:17 | -23.07868 | 169.73405 | 44999 ft | 484 kts | 164° |
| 2026-04-30 21:17 | -23.14339 | 169.75386 | 45002 ft | 482 kts | 164° |
| 2026-04-30 21:18 | -23.20790 | 169.77363 | 45000 ft | 481 kts | 164° |
| 2026-04-30 21:18 | -23.27222 | 169.79336 | 44996 ft | 480 kts | 164° |
| 2026-04-30 21:19 | -23.33622 | 169.81302 | 44996 ft | 482 kts | 164° |
| 2026-04-30 21:19 | -23.40090 | 169.83290 | 44995 ft | 483 kts | 164° |
| 2026-04-30 21:20 | -23.46580 | 169.85288 | 45001 ft | 485 kts | 164° |
| 2026-04-30 21:20 | -23.53069 | 169.87286 | 45002 ft | 484 kts | 164° |
| 2026-04-30 21:21 | -23.59531 | 169.89278 | 44999 ft | 482 kts | 164° |
| 2026-04-30 21:22 | -23.69183 | 169.92259 | 44998 ft | 480 kts | 164° |
| 2026-04-30 21:23 | -23.82064 | 169.96241 | 44999 ft | 484 kts | 164° |
| 2026-04-30 21:23 | -23.91799 | 169.99259 | 45001 ft | 484 kts | 164° |
| 2026-04-30 21:24 | -23.98275 | 170.01267 | 45001 ft | 482 kts | 164° |
| 2026-04-30 21:24 | -24.04721 | 170.03269 | 44999 ft | 481 kts | 164° |
| 2026-04-30 21:25 | -24.14368 | 170.06270 | 44994 ft | 481 kts | 164° |
| 2026-04-30 21:26 | -24.24021 | 170.09276 | 44995 ft | 483 kts | 164° |
| 2026-04-30 21:27 | -24.33746 | 170.12309 | 45001 ft | 484 kts | 164° |
| 2026-04-30 21:27 | -24.40220 | 170.14331 | 44999 ft | 483 kts | 164° |
| 2026-04-30 21:28 | -24.49893 | 170.17357 | 44997 ft | 481 kts | 164° |
| 2026-04-30 21:29 | -24.59544 | 170.20382 | 44997 ft | 481 kts | 164° |
| 2026-04-30 21:30 | -24.75665 | 170.25443 | 45002 ft | 485 kts | 164° |
| 2026-04-30 21:31 | -24.91815 | 170.30526 | 44999 ft | 481 kts | 164° |
| 2026-04-30 21:32 | -25.01457 | 170.33568 | 44996 ft | 481 kts | 164° |
| 2026-04-30 21:32 | -25.07863 | 170.35592 | 44994 ft | 483 kts | 164° |
| 2026-04-30 21:33 | -25.17572 | 170.38664 | 45001 ft | 485 kts | 164° |
| 2026-04-30 21:34 | -25.24054 | 170.40717 | 45002 ft | 483 kts | 164° |
| 2026-04-30 21:34 | -25.33733 | 170.43789 | 44997 ft | 481 kts | 164° |
| 2026-04-30 21:35 | -25.40159 | 170.45830 | 44997 ft | 480 kts | 164° |
| 2026-04-30 21:35 | -25.46553 | 170.47863 | 44996 ft | 482 kts | 164° |
| 2026-04-30 21:36 | -25.53004 | 170.49916 | 44998 ft | 483 kts | 164° |
| 2026-04-30 21:37 | -25.65956 | 170.54048 | 44997 ft | 484 kts | 164° |
| 2026-04-30 21:37 | -25.72422 | 170.56114 | 44998 ft | 482 kts | 164° |
| 2026-04-30 21:38 | -25.78858 | 170.58172 | 44997 ft | 480 kts | 164° |
| 2026-04-30 21:38 | -25.85283 | 170.60229 | 44995 ft | 480 kts | 164° |
| 2026-04-30 21:39 | -25.91725 | 170.62293 | 44995 ft | 482 kts | 164° |
| 2026-04-30 21:39 | -25.98143 | 170.64353 | 44996 ft | 484 kts | 164° |
| 2026-04-30 21:40 | -26.04617 | 170.66433 | 45001 ft | 485 kts | 164° |
| 2026-04-30 21:40 | -26.11086 | 170.68514 | 45001 ft | 483 kts | 164° |
| 2026-04-30 21:41 | -26.17530 | 170.70589 | 45000 ft | 481 kts | 164° |
| 2026-04-30 21:41 | -26.23951 | 170.72660 | 44998 ft | 480 kts | 164° |
| 2026-04-30 21:42 | -26.30373 | 170.74732 | 44996 ft | 481 kts | 164° |
| 2026-04-30 21:42 | -26.36815 | 170.76813 | 44997 ft | 483 kts | 164° |
| 2026-04-30 21:43 | -26.43285 | 170.78906 | 44999 ft | 484 kts | 164° |
| 2026-04-30 21:43 | -26.49760 | 170.81003 | 45002 ft | 484 kts | 164° |
| 2026-04-30 21:44 | -26.56180 | 170.83086 | 44997 ft | 482 kts | 164° |
| 2026-04-30 21:44 | -26.62612 | 170.85174 | 44998 ft | 481 kts | 164° |
| 2026-04-30 21:45 | -26.69036 | 170.87262 | 44995 ft | 480 kts | 164° |
| 2026-04-30 21:45 | -26.75466 | 170.89354 | 44995 ft | 482 kts | 164° |
| 2026-04-30 21:46 | -26.81917 | 170.91456 | 44997 ft | 483 kts | 164° |
| 2026-04-30 21:46 | -26.88392 | 170.93567 | 45000 ft | 485 kts | 164° |
| 2026-04-30 21:47 | -26.94859 | 170.95679 | 45002 ft | 483 kts | 164° |
| 2026-04-30 21:47 | -27.01261 | 170.97773 | 44995 ft | 482 kts | 164° |
| 2026-04-30 21:48 | -27.07693 | 170.99879 | 44998 ft | 481 kts | 164° |
| 2026-04-30 21:48 | -27.14113 | 171.01983 | 44993 ft | 480 kts | 164° |
| 2026-04-30 21:49 | -27.20540 | 171.04092 | 44991 ft | 481 kts | 164° |
| 2026-04-30 21:49 | -27.26983 | 171.06208 | 44996 ft | 483 kts | 164° |
| 2026-04-30 21:50 | -27.33451 | 171.08335 | 44998 ft | 485 kts | 164° |
| 2026-04-30 21:50 | -27.39879 | 171.10452 | 44998 ft | 483 kts | 164° |
| 2026-04-30 21:51 | -27.46331 | 171.12580 | 45000 ft | 482 kts | 164° |
| 2026-04-30 21:51 | -27.52758 | 171.14702 | 44998 ft | 480 kts | 164° |
| 2026-04-30 21:52 | -27.59171 | 171.16822 | 44996 ft | 480 kts | 164° |
| 2026-04-30 21:52 | -27.65601 | 171.18950 | 44996 ft | 482 kts | 164° |
| 2026-04-30 21:53 | -27.72056 | 171.21088 | 44995 ft | 484 kts | 163° |
| 2026-04-30 21:53 | -27.78529 | 171.23235 | 45001 ft | 485 kts | 163° |
| 2026-04-30 21:54 | -27.84997 | 171.25383 | 45000 ft | 483 kts | 164° |
| 2026-04-30 21:54 | -27.91434 | 171.27525 | 45000 ft | 481 kts | 164° |
| 2026-04-30 21:55 | -27.97849 | 171.29661 | 44998 ft | 480 kts | 163° |
| 2026-04-30 21:55 | -28.04218 | 171.31785 | 44995 ft | 481 kts | 163° |
| 2026-04-30 21:56 | -28.10651 | 171.33932 | 44996 ft | 483 kts | 163° |
| 2026-04-30 21:56 | -28.17102 | 171.36088 | 44997 ft | 484 kts | 163° |
| 2026-04-30 21:57 | -28.23574 | 171.38253 | 45002 ft | 484 kts | 163° |
| 2026-04-30 21:57 | -28.30029 | 171.40416 | 45002 ft | 482 kts | 163° |
| 2026-04-30 21:58 | -28.36455 | 171.42572 | 45001 ft | 481 kts | 163° |
| 2026-04-30 21:58 | -28.42863 | 171.44726 | 44996 ft | 480 kts | 163° |
| 2026-04-30 21:59 | -28.49235 | 171.46869 | 44995 ft | 482 kts | 163° |
| 2026-04-30 22:00 | -28.58905 | 171.50126 | 44999 ft | 484 kts | 163° |
| 2026-04-30 22:00 | -28.68596 | 171.53397 | 44997 ft | 483 kts | 163° |
| 2026-04-30 22:01 | -28.75032 | 171.55573 | 44998 ft | 482 kts | 163° |
| 2026-04-30 22:01 | -28.81457 | 171.57748 | 44996 ft | 480 kts | 163° |
| 2026-04-30 22:02 | -28.87871 | 171.59922 | 44992 ft | 480 kts | 163° |
| 2026-04-30 22:02 | -28.94251 | 171.62088 | 44991 ft | 482 kts | 163° |
| 2026-04-30 22:03 | -29.00692 | 171.64277 | 44996 ft | 484 kts | 163° |
| 2026-04-30 22:03 | -29.06068 | 171.66105 | 44999 ft | 485 kts | 163° |
| 2026-04-30 22:04 | -29.12536 | 171.68308 | 45002 ft | 483 kts | 163° |
| 2026-04-30 22:05 | -29.22159 | 171.71592 | 44998 ft | 481 kts | 163° |
| 2026-04-30 22:05 | -29.28560 | 171.73779 | 44993 ft | 480 kts | 163° |
| 2026-04-30 22:06 | -29.34974 | 171.75973 | 44996 ft | 482 kts | 163° |
| 2026-04-30 22:06 | -29.44633 | 171.79285 | 44998 ft | 484 kts | 163° |
| 2026-04-30 22:07 | -29.51105 | 171.81507 | 45000 ft | 484 kts | 163° |
| 2026-04-30 22:07 | -29.57551 | 171.83723 | 45000 ft | 482 kts | 163° |
| 2026-04-30 22:08 | -29.63935 | 171.85920 | 45000 ft | 481 kts | 163° |
| 2026-04-30 22:08 | -29.70338 | 171.88128 | 44997 ft | 480 kts | 163° |
| 2026-04-30 22:09 | -29.76753 | 171.90343 | 44997 ft | 482 kts | 163° |
| 2026-04-30 22:09 | -29.83190 | 171.92567 | 44997 ft | 484 kts | 163° |
| 2026-04-30 22:10 | -29.89653 | 171.94804 | 44999 ft | 485 kts | 163° |
| 2026-04-30 22:10 | -29.96104 | 171.97039 | 45001 ft | 483 kts | 163° |
| 2026-04-30 22:11 | -30.05733 | 172.00383 | 44999 ft | 481 kts | 163° |
| 2026-04-30 22:12 | -30.12129 | 172.02606 | 44997 ft | 480 kts | 163° |
| 2026-04-30 22:12 | -30.18513 | 172.04829 | 44996 ft | 482 kts | 163° |
| 2026-04-30 22:13 | -30.24948 | 172.07072 | 44997 ft | 483 kts | 163° |
| 2026-04-30 22:13 | -30.31371 | 172.09315 | 44997 ft | 485 kts | 163° |
| 2026-04-30 22:14 | -30.37821 | 172.11571 | 45002 ft | 484 kts | 163° |
| 2026-04-30 22:14 | -30.44271 | 172.13829 | 45001 ft | 482 kts | 163° |
| 2026-04-30 22:15 | -30.50679 | 172.16076 | 44999 ft | 480 kts | 163° |
| 2026-04-30 22:15 | -30.57074 | 172.18321 | 44997 ft | 480 kts | 163° |
| 2026-04-30 22:16 | -30.63491 | 172.20577 | 44997 ft | 482 kts | 163° |
| 2026-04-30 22:17 | -30.76377 | 172.25116 | 44998 ft | 485 kts | 163° |
| 2026-04-30 22:17 | -30.85998 | 172.28514 | 45001 ft | 482 kts | 163° |
| 2026-04-30 22:18 | -30.95607 | 172.31916 | 44998 ft | 480 kts | 163° |
| 2026-04-30 22:19 | -31.05220 | 172.35324 | 44997 ft | 482 kts | 163° |
| 2026-04-30 22:20 | -31.14824 | 172.38737 | 45000 ft | 484 kts | 163° |
| 2026-04-30 22:20 | -31.24503 | 172.42186 | 45002 ft | 483 kts | 163° |
| 2026-04-30 22:21 | -31.30929 | 172.44478 | 45000 ft | 481 kts | 163° |
| 2026-04-30 22:21 | -31.37327 | 172.46764 | 44995 ft | 480 kts | 163° |
| 2026-04-30 22:22 | -31.43726 | 172.49053 | 44992 ft | 481 kts | 163° |
| 2026-04-30 22:22 | -31.50148 | 172.51355 | 44996 ft | 483 kts | 163° |
| 2026-04-30 22:23 | -31.56544 | 172.53651 | 44999 ft | 484 kts | 163° |
| 2026-04-30 22:23 | -31.62995 | 172.55969 | 45002 ft | 485 kts | 163° |
| 2026-04-30 22:24 | -31.69436 | 172.58287 | 44996 ft | 483 kts | 163° |
| 2026-04-30 22:24 | -31.75859 | 172.60602 | 44999 ft | 481 kts | 163° |
| 2026-04-30 22:25 | -31.82254 | 172.62909 | 44997 ft | 480 kts | 163° |
| 2026-04-30 22:25 | -31.88609 | 172.65206 | 44995 ft | 481 kts | 163° |
| 2026-04-30 22:26 | -31.98237 | 172.68693 | 44997 ft | 484 kts | 163° |
| 2026-04-30 22:27 | -32.04687 | 172.71033 | 44997 ft | 485 kts | 163° |
| 2026-04-30 22:27 | -32.14336 | 172.74541 | 45001 ft | 482 kts | 163° |
| 2026-04-30 22:28 | -32.23929 | 172.78035 | 44998 ft | 480 kts | 163° |
| 2026-04-30 22:29 | -32.36687 | 172.82694 | 44996 ft | 483 kts | 163° |
| 2026-04-30 22:31 | -32.59152 | 172.90932 | 45001 ft | 482 kts | 163° |
| 2026-04-30 22:32 | -32.75127 | 172.96816 | 44998 ft | 481 kts | 163° |
| 2026-04-30 22:33 | -32.91191 | 173.02755 | 45002 ft | 485 kts | 163° |
| 2026-04-30 22:35 | -33.07184 | 173.08690 | 44997 ft | 480 kts | 163° |
| 2026-04-30 22:36 | -33.23156 | 173.14640 | 44995 ft | 483 kts | 163° |
| 2026-04-30 22:37 | -33.36023 | 173.19451 | 45001 ft | 483 kts | 163° |
| 2026-04-30 22:38 | -33.48826 | 173.24253 | 45000 ft | 480 kts | 163° |
| 2026-04-30 22:39 | -33.58360 | 173.27837 | 44995 ft | 481 kts | 163° |
| 2026-04-30 22:40 | -33.77619 | 173.35104 | 45000 ft | 483 kts | 162° |
| 2026-04-30 22:41 | -33.93865 | 173.39714 | 44995 ft | 480 kts | 174° |
| 2026-04-30 22:43 | -34.13880 | 173.42099 | 44998 ft | 483 kts | 174° |
| 2026-04-30 22:44 | -34.27216 | 173.43693 | 44998 ft | 480 kts | 174° |
| 2026-04-30 22:45 | -34.47217 | 173.46092 | 44998 ft | 484 kts | 174° |
| 2026-04-30 22:47 | -34.67260 | 173.48507 | 45000 ft | 480 kts | 174° |
| 2026-04-30 22:48 | -34.80530 | 173.50113 | 44999 ft | 482 kts | 174° |
| 2026-04-30 22:49 | -34.90329 | 173.51303 | 44982 ft | 430 kts | 174° |
| 2026-04-30 22:49 | -34.98292 | 173.52270 | 44963 ft | 345 kts | 174° |
| 2026-04-30 22:50 | -35.07876 | 173.53438 | 44985 ft | 358 kts | 174° |
| 2026-04-30 22:51 | -35.12935 | 173.54056 | 44991 ft | 371 kts | 174° |
| 2026-04-30 22:51 | -35.18133 | 173.54692 | 45006 ft | 384 kts | 174° |
| 2026-04-30 22:52 | -35.20830 | 173.55020 | 44731 ft | 398 kts | 174° |
| 2026-04-30 22:52 | -35.26623 | 173.55730 | 43623 ft | 439 kts | 174° |
| 2026-04-30 22:53 | -35.31797 | 173.56366 | 42616 ft | 454 kts | 174° |
| 2026-04-30 22:53 | -35.38087 | 173.57139 | 41397 ft | 454 kts | 174° |
| 2026-04-30 22:53 | -35.41223 | 173.57523 | 40792 ft | 451 kts | 174° |
| 2026-04-30 22:54 | -35.47456 | 173.58291 | 39590 ft | 448 kts | 174° |
| 2026-04-30 22:55 | -35.56820 | 173.59446 | 37786 ft | 454 kts | 174° |
| 2026-04-30 22:55 | -35.63063 | 173.60218 | 36583 ft | 453 kts | 174° |
| 2026-04-30 22:56 | -35.69335 | 173.60995 | 35377 ft | 453 kts | 174° |
| 2026-04-30 22:56 | -35.78785 | 173.62167 | 33557 ft | 455 kts | 174° |
| 2026-04-30 22:57 | -35.85079 | 173.62949 | 32343 ft | 458 kts | 174° |
| 2026-04-30 22:57 | -35.91442 | 173.63742 | 31119 ft | 460 kts | 174° |
| 2026-04-30 22:58 | -35.97845 | 173.64540 | 29883 ft | 463 kts | 174° |
| 2026-04-30 22:59 | -36.07354 | 173.65728 | 28059 ft | 452 kts | 174° |
| 2026-04-30 22:59 | -36.16629 | 173.66889 | 26280 ft | 440 kts | 174° |